createdAt,value
2018-12-19T00:00:07.989Z,96648.89
2018-12-19T00:02:36.351Z,96645.88
2018-12-19T00:05:04.953Z,96641.91
2018-12-19T00:07:33.325Z,96636.91
2018-12-19T00:10:01.784Z,96637.32
2018-12-19T00:12:30.278Z,96622.11
2018-12-19T00:14:58.736Z,96619.26
2018-12-19T00:17:27.249Z,96628.53
2018-12-19T00:19:55.712Z,96626.36
2018-12-19T00:22:24.205Z,96615.31
2018-12-19T00:24:52.458Z,96621.02
2018-12-19T00:27:20.737Z,96610.75
2018-12-19T00:29:49.241Z,96620.19
2018-12-19T00:32:17.633Z,96605.89
2018-12-19T00:34:46.074Z,96602.36
2018-12-19T00:37:14.344Z,96600.17
2018-12-19T00:39:43.044Z,96594.23
2018-12-19T00:42:11.299Z,96594.39
2018-12-19T00:44:40.034Z,96587.14
2018-12-19T00:47:08.490Z,96583.58
2018-12-19T00:49:36.993Z,96578.47
2018-12-19T00:52:05.653Z,96580.52
2018-12-19T00:54:33.948Z,96576.84
2018-12-19T00:57:02.424Z,96575.50
2018-12-19T00:59:30.724Z,96565.94
2018-12-19T01:01:59.089Z,96561.25
2018-12-19T01:04:27.376Z,96570.59
2018-12-19T01:06:56.049Z,96572.98
2018-12-19T01:09:24.459Z,96579.77
2018-12-19T01:11:52.806Z,96581.45
2018-12-19T01:14:21.297Z,96587.16
2018-12-19T01:16:50.856Z,96588.03
2018-12-19T01:19:19.201Z,96581.95
2018-12-19T01:21:47.744Z,96574.88
2018-12-19T01:24:16.246Z,96588.58
2018-12-19T01:26:44.501Z,96595.94
2018-12-19T01:29:13.201Z,96584.91
2018-12-19T01:31:41.677Z,96584.18
2018-12-19T01:34:09.957Z,96578.57
2018-12-19T01:36:38.638Z,96578.72
2018-12-19T01:39:08.188Z,96585.80
2018-12-19T01:41:36.629Z,96585.05
2018-12-19T01:44:04.992Z,96595.08
2018-12-19T01:46:33.275Z,96591.38
2018-12-19T01:49:01.556Z,96596.23
2018-12-19T01:51:30.169Z,96602.14
2018-12-19T01:53:58.521Z,96604.94
2018-12-19T01:56:26.805Z,96600.23
2018-12-19T01:58:55.472Z,96594.67
2018-12-19T02:01:23.757Z,96591.13
2018-12-19T02:03:52.454Z,96584.06
2018-12-19T02:06:20.733Z,96585.75
2018-12-19T02:08:49.421Z,96582.80
2018-12-19T02:11:17.697Z,96585.38
2018-12-19T02:13:46.385Z,96582.04
2018-12-19T02:16:14.661Z,96577.97
2018-12-19T02:18:43.332Z,96581.80
2018-12-19T02:21:11.639Z,96584.58
2018-12-19T02:23:40.297Z,96575.23
2018-12-19T02:26:09.323Z,96578.23
2018-12-19T02:28:37.585Z,96587.88
2018-12-19T02:31:06.204Z,96583.47
2018-12-19T02:33:34.469Z,96583.47
2018-12-19T02:36:02.741Z,96588.78
2018-12-19T02:38:31.001Z,96580.81
2018-12-19T02:40:59.259Z,96581.16
2018-12-19T02:43:27.555Z,96580.94
2018-12-19T02:45:55.810Z,96577.98
2018-12-19T02:48:24.120Z,96579.53
2018-12-19T02:50:52.385Z,96569.28
2018-12-19T02:53:21.101Z,96572.06
2018-12-19T02:55:49.550Z,96568.69
2018-12-19T02:58:17.831Z,96569.28
2018-12-19T03:00:46.502Z,96568.81
2018-12-19T03:03:15.017Z,96569.84
2018-12-19T03:05:43.273Z,96564.83
2018-12-19T03:08:11.561Z,96571.94
2018-12-19T03:10:39.929Z,96569.41
2018-12-19T03:13:08.437Z,96566.41
2018-12-19T03:15:36.710Z,96564.22
2018-12-19T03:18:05.410Z,96567.19
2018-12-19T03:20:33.849Z,96561.19
2018-12-19T03:23:02.340Z,96568.34
2018-12-19T03:25:31.856Z,96556.60
2018-12-19T03:28:00.137Z,96559.30
2018-12-19T03:30:28.398Z,96549.28
2018-12-19T03:32:56.670Z,96555.91
2018-12-19T03:35:24.941Z,96557.55
2018-12-19T03:37:53.253Z,96552.64
2018-12-19T03:40:21.701Z,96558.41
2018-12-19T03:42:50.205Z,96548.28
2018-12-19T03:45:18.669Z,96548.25
2018-12-19T03:47:46.938Z,96547.35
2018-12-19T03:50:16.242Z,96563.02
2018-12-19T03:52:44.515Z,96550.94
2018-12-19T03:55:13.114Z,96555.31
2018-12-19T03:57:41.497Z,96550.20
2018-12-19T04:00:10.189Z,96563.53
2018-12-19T04:02:38.569Z,96566.27
2018-12-19T04:05:07.030Z,96561.01
2018-12-19T04:07:35.530Z,96559.33
2018-12-19T04:10:05.029Z,96554.10
2018-12-19T04:12:33.286Z,96552.52
2018-12-19T04:15:01.564Z,96546.68
2018-12-19T04:17:29.848Z,96546.25
2018-12-19T04:19:58.142Z,96553.36
2018-12-19T04:22:26.389Z,96558.66
2018-12-19T04:24:54.926Z,96555.13
2018-12-19T04:27:23.370Z,96557.55
2018-12-19T04:29:52.473Z,96555.42
2018-12-19T04:32:21.034Z,96551.14
2018-12-19T04:34:49.306Z,96546.43
2018-12-19T04:37:17.846Z,96548.49
2018-12-19T04:39:46.301Z,96540.03
2018-12-19T04:42:14.570Z,96534.88
2018-12-19T04:44:42.849Z,96539.45
2018-12-19T04:47:11.233Z,96528.91
2018-12-19T04:49:39.746Z,96532.72
2018-12-19T04:52:08.177Z,96524.64
2018-12-19T04:54:36.686Z,96528.89
2018-12-19T04:57:04.954Z,96537.45
2018-12-19T04:59:33.340Z,96530.07
2018-12-19T05:02:02.114Z,96531.13
2018-12-19T05:04:30.632Z,96527.42
2018-12-19T05:06:59.072Z,96535.69
2018-12-19T05:09:27.587Z,96524.91
2018-12-19T05:11:56.651Z,96519.60
2018-12-19T05:14:25.672Z,96516.50
2018-12-19T05:16:54.008Z,96523.48
2018-12-19T05:19:22.285Z,96525.98
2018-12-19T05:21:50.557Z,96534.00
2018-12-19T05:24:18.866Z,96530.54
2018-12-19T05:26:47.121Z,96531.92
2018-12-19T05:29:15.390Z,96511.24
2018-12-19T05:31:43.914Z,96520.92
2018-12-19T05:34:12.197Z,96497.95
2018-12-19T05:36:40.476Z,96505.67
2018-12-19T05:39:08.830Z,96499.30
2018-12-19T05:41:37.334Z,96519.33
2018-12-19T05:44:05.792Z,96510.64
2018-12-19T05:46:34.078Z,96506.74
2018-12-19T05:49:02.342Z,96507.34
2018-12-19T05:51:30.744Z,96510.89
2018-12-19T05:53:59.202Z,96518.22
2018-12-19T05:56:27.482Z,96522.68
2018-12-19T05:58:56.065Z,96518.30
2018-12-19T06:01:24.357Z,96528.24
2018-12-19T06:03:53.110Z,96516.29
2018-12-19T06:06:21.637Z,96524.85
2018-12-19T06:08:49.889Z,96526.60
2018-12-19T06:11:18.189Z,96537.41
2018-12-19T06:13:47.073Z,96537.67
2018-12-19T06:16:15.565Z,96533.47
2018-12-19T06:18:43.838Z,96536.72
2018-12-19T06:21:12.148Z,96543.75
2018-12-19T06:23:40.474Z,96539.89
2018-12-19T06:26:08.978Z,96549.48
2018-12-19T06:28:37.433Z,96556.13
2018-12-19T06:31:05.705Z,96552.88
2018-12-19T06:33:35.506Z,96551.72
2018-12-19T06:36:04.401Z,96559.09
2018-12-19T06:38:33.929Z,96569.28
2018-12-19T06:41:02.554Z,96569.72
2018-12-19T06:43:30.888Z,96565.73
2018-12-19T06:45:59.382Z,96566.67
2018-12-19T06:48:27.850Z,96576.31
2018-12-19T06:50:56.349Z,96576.31
2018-12-19T06:53:24.815Z,96578.70
2018-12-19T06:55:53.093Z,96584.02
2018-12-19T06:58:21.758Z,96582.40
2018-12-19T07:00:50.259Z,96586.47
2018-12-19T07:03:18.795Z,96585.87
2018-12-19T07:05:47.236Z,96592.43
2018-12-19T07:08:15.506Z,96582.78
2018-12-19T07:10:43.770Z,96589.81
2018-12-19T07:13:12.061Z,96593.19
2018-12-19T07:15:40.453Z,96595.85
2018-12-19T07:18:09.148Z,96590.84
2018-12-19T07:20:37.600Z,96594.66
2018-12-19T07:23:06.104Z,96592.89
2018-12-19T07:25:34.569Z,96591.00
2018-12-19T07:28:03.083Z,96589.89
2018-12-19T07:30:31.549Z,96596.23
2018-12-19T07:33:00.042Z,96591.87
2018-12-19T07:35:29.485Z,96588.64
2018-12-19T07:37:57.768Z,96578.75
2018-12-19T07:40:26.025Z,96584.06
2018-12-19T07:42:54.465Z,96575.06
2018-12-19T07:45:22.931Z,96583.00
2018-12-19T07:47:51.217Z,96580.17
2018-12-19T07:50:19.818Z,96580.04
2018-12-19T07:52:49.002Z,96574.72
2018-12-19T07:55:17.374Z,96579.41
2018-12-19T07:57:45.641Z,96573.79
2018-12-19T08:00:14.282Z,96568.25
2018-12-19T08:02:42.854Z,96569.37
2018-12-19T08:05:11.305Z,96588.95
2018-12-19T08:07:39.809Z,96578.05
2018-12-19T08:10:08.908Z,96583.50
2018-12-19T08:12:37.182Z,96583.08
2018-12-19T08:15:05.666Z,96584.83
2018-12-19T08:17:34.034Z,96594.98
2018-12-19T08:20:02.320Z,96591.34
2018-12-19T08:22:30.593Z,96590.53
2018-12-19T08:24:58.882Z,96596.86
2018-12-19T08:27:27.161Z,96587.56
2018-12-19T08:29:55.421Z,96594.20
2018-12-19T08:32:23.705Z,96594.33
2018-12-19T08:34:51.965Z,96594.33
2018-12-19T08:37:20.225Z,96597.20
2018-12-19T08:39:48.478Z,96599.77
2018-12-19T08:42:16.781Z,96601.00
2018-12-19T08:44:45.055Z,96608.58
2018-12-19T08:47:13.357Z,96598.28
2018-12-19T08:49:41.933Z,96595.52
2018-12-19T08:52:10.445Z,96599.63
2018-12-19T08:54:38.721Z,96605.09
2018-12-19T08:57:07.402Z,96605.91
2018-12-19T08:59:35.847Z,96617.48
2018-12-19T09:02:04.117Z,96620.51
2018-12-19T09:04:32.838Z,96624.32
2018-12-19T09:07:01.303Z,96636.52
2018-12-19T09:09:29.565Z,96642.99
2018-12-19T09:11:58.385Z,96645.84
2018-12-19T09:14:26.766Z,96640.52
2018-12-19T09:16:55.219Z,96641.51
2018-12-19T09:19:23.790Z,96640.63
2018-12-19T09:21:52.188Z,96647.17
2018-12-19T09:24:20.601Z,96653.23
2018-12-19T09:26:49.157Z,96654.05
2018-12-19T09:29:17.649Z,96666.84
2018-12-19T09:31:47.749Z,96667.13
2018-12-19T09:34:16.278Z,96665.84
2018-12-19T09:36:44.554Z,96669.31
2018-12-19T09:39:12.833Z,96682.27
2018-12-19T09:41:41.205Z,96672.84
2018-12-19T09:44:09.486Z,96670.95
2018-12-19T09:46:37.749Z,96669.87
2018-12-19T09:49:12.246Z,96661.67
2018-12-19T09:51:36.532Z,96658.32
2018-12-19T09:54:04.901Z,96665.32
2018-12-19T09:56:33.500Z,96651.91
2018-12-19T09:59:01.764Z,96653.42
2018-12-19T10:01:30.057Z,96648.53
2018-12-19T10:03:58.851Z,96648.05
2018-12-19T10:06:27.473Z,96650.55
2018-12-19T10:08:55.931Z,96652.00
2018-12-19T10:11:24.205Z,96657.44
2018-12-19T10:13:52.477Z,96661.05
2018-12-19T10:16:20.873Z,96659.30
2018-12-19T10:18:49.144Z,96655.95
2018-12-19T10:21:18.425Z,96660.59
2018-12-19T10:23:46.686Z,96655.64
2018-12-19T10:26:14.982Z,96655.36
2018-12-19T10:28:43.249Z,96652.45
2018-12-19T10:31:11.749Z,96646.72
2018-12-19T10:33:40.013Z,96644.73
2018-12-19T10:36:08.298Z,96634.59
2018-12-19T10:38:36.565Z,96632.94
2018-12-19T10:41:05.329Z,96639.70
2018-12-19T10:43:33.588Z,96648.24
2018-12-19T10:46:01.862Z,96648.98
2018-12-19T10:48:30.121Z,96651.49
2018-12-19T10:50:58.406Z,96644.15
2018-12-19T10:53:27.036Z,96640.06
2018-12-19T10:55:55.539Z,96642.83
2018-12-19T10:58:23.797Z,96637.77
2018-12-19T11:00:57.629Z,96637.11
2018-12-19T11:03:25.887Z,96631.30
2018-12-19T11:05:54.597Z,96630.52
2018-12-19T11:08:23.311Z,96627.33
2018-12-19T11:10:52.137Z,96628.88
2018-12-19T11:13:20.417Z,96614.32
2018-12-19T11:15:49.025Z,96621.16
2018-12-19T11:18:17.502Z,96618.97
2018-12-19T11:20:45.916Z,96618.27
2018-12-19T11:23:15.476Z,96615.31
2018-12-19T11:25:43.977Z,96621.09
2018-12-19T11:28:12.451Z,96618.92
2018-12-19T11:30:40.953Z,96620.47
2018-12-19T11:33:09.407Z,96616.82
2018-12-19T11:35:37.896Z,96603.27
2018-12-19T11:38:06.148Z,96603.86
2018-12-19T11:40:34.421Z,96598.58
2018-12-19T11:43:03.386Z,96605.06
2018-12-19T11:45:31.817Z,96597.11
2018-12-19T11:48:00.437Z,96591.91
2018-12-19T11:50:28.705Z,96599.27
2018-12-19T11:52:57.276Z,96596.50
2018-12-19T11:55:25.760Z,96588.23
2018-12-19T11:57:54.057Z,96586.89
2018-12-19T12:00:22.709Z,96593.17
2018-12-19T12:02:51.729Z,96587.70
2018-12-19T12:05:19.988Z,96579.05
2018-12-19T12:07:48.253Z,96582.77
2018-12-19T12:10:16.613Z,96583.05
2018-12-19T12:12:44.886Z,96577.77
2018-12-19T12:15:13.129Z,96580.86
2018-12-19T12:17:41.399Z,96574.02
2018-12-19T12:20:09.788Z,96583.48
2018-12-19T12:22:38.073Z,96571.15
2018-12-19T12:25:06.485Z,96570.14
2018-12-19T12:27:34.998Z,96568.45
2018-12-19T12:30:03.490Z,96565.09
2018-12-19T12:32:31.973Z,96560.80
2018-12-19T12:35:01.581Z,96554.58
2018-12-19T12:37:29.861Z,96568.23
2018-12-19T12:39:58.133Z,96566.75
2018-12-19T12:42:26.430Z,96566.52
2018-12-19T12:44:54.993Z,96568.45
2018-12-19T12:47:23.375Z,96557.70
2018-12-19T12:49:51.821Z,96564.49
2018-12-19T12:52:20.346Z,96556.06
2018-12-19T12:54:48.720Z,96560.64
2018-12-19T12:57:17.013Z,96564.88
2018-12-19T12:59:45.452Z,96563.45
2018-12-19T13:02:14.242Z,96555.17
2018-12-19T13:04:42.925Z,96554.77
2018-12-19T13:07:11.211Z,96547.43
2018-12-19T13:09:39.701Z,96541.23
2018-12-19T13:12:08.065Z,96538.38
2018-12-19T13:14:36.671Z,96542.41
2018-12-19T13:17:05.132Z,96540.32
2018-12-19T13:19:33.626Z,96538.66
2018-12-19T13:22:01.905Z,96541.23
2018-12-19T13:24:30.189Z,96537.92
2018-12-19T13:26:58.546Z,96534.16
2018-12-19T13:29:27.046Z,96540.36
2018-12-19T13:31:55.617Z,96534.28
2018-12-19T13:34:23.932Z,96538.09
2018-12-19T13:36:52.462Z,96536.92
2018-12-19T13:39:20.757Z,96529.47
2018-12-19T13:41:49.036Z,96531.84
2018-12-19T13:44:17.421Z,96531.27
2018-12-19T13:46:45.893Z,96532.30
2018-12-19T13:49:14.422Z,96523.45
2018-12-19T13:51:42.707Z,96524.81
2018-12-19T13:54:11.061Z,96523.63
2018-12-19T13:56:39.941Z,96524.55
2018-12-19T13:59:08.956Z,96527.86
2018-12-19T14:01:37.245Z,96525.19
2018-12-19T14:04:06.513Z,96521.41
2018-12-19T14:06:34.787Z,96510.11
2018-12-19T14:09:04.509Z,96514.68
2018-12-19T14:11:33.181Z,96506.34
2018-12-19T14:14:02.206Z,96505.16
2018-12-19T14:16:32.487Z,96505.69
2018-12-19T14:19:00.764Z,96502.58
2018-12-19T14:21:29.033Z,96496.30
2018-12-19T14:23:58.301Z,96485.44
2018-12-19T14:26:27.576Z,96485.89
2018-12-19T14:28:55.845Z,96468.72
2018-12-19T14:31:24.124Z,96470.55
2018-12-19T14:33:52.377Z,96474.11
2018-12-19T14:36:20.669Z,96484.02
2018-12-19T14:38:48.917Z,96480.86
2018-12-19T14:41:17.622Z,96478.13
2018-12-19T14:43:46.752Z,96493.91
2018-12-19T14:46:15.056Z,96504.14
2018-12-19T14:48:43.304Z,96511.25
2018-12-19T14:51:12.158Z,96516.38
2018-12-19T14:53:40.529Z,96528.40
2018-12-19T14:56:08.813Z,96533.87
2018-12-19T14:58:37.481Z,96536.44
2018-12-19T15:01:05.996Z,96540.51
2018-12-19T15:03:34.269Z,96547.03
2018-12-19T15:06:03.083Z,96545.19
2018-12-19T15:08:31.345Z,96547.56
2018-12-19T15:10:59.633Z,96546.00
2018-12-19T15:13:28.005Z,96543.89
2018-12-19T15:16:03.498Z,96538.70
2018-12-19T15:18:32.009Z,96533.24
2018-12-19T15:21:00.309Z,96534.11
2018-12-19T15:23:28.573Z,96529.63
2018-12-19T15:25:56.952Z,96537.67
2018-12-19T15:28:25.237Z,96547.28
2018-12-19T15:30:53.919Z,96549.09
2018-12-19T15:33:22.285Z,96549.94
2018-12-19T15:35:50.569Z,96551.32
2018-12-19T15:38:18.852Z,96542.36
2018-12-19T15:40:47.134Z,96538.86
2018-12-19T15:43:15.384Z,96532.00
2018-12-19T15:45:44.246Z,96535.34
2018-12-19T15:48:12.502Z,96537.97
2018-12-19T15:50:40.769Z,96540.72
2018-12-19T15:53:09.077Z,96544.94
2018-12-19T15:55:37.785Z,96545.12
2018-12-19T15:58:06.066Z,96554.63
2018-12-19T16:00:34.661Z,96559.66
2018-12-19T16:03:03.170Z,96562.49
2018-12-19T16:05:31.448Z,96566.26
2018-12-19T16:08:00.228Z,96574.05
2018-12-19T16:10:28.487Z,96561.86
2018-12-19T16:12:57.077Z,96551.56
2018-12-19T16:15:25.353Z,96560.46
2018-12-19T16:17:54.065Z,96553.66
2018-12-19T16:20:22.373Z,96553.58
2018-12-19T16:22:51.528Z,96564.93
2018-12-19T16:25:19.789Z,96561.86
2018-12-19T16:27:48.155Z,96557.91
2018-12-19T16:30:16.502Z,96560.80
2018-12-19T16:32:44.805Z,96557.20
2018-12-19T16:35:13.185Z,96561.97
2018-12-19T16:37:41.506Z,96551.70
2018-12-19T16:40:09.778Z,96552.92
2018-12-19T16:42:38.160Z,96553.99
2018-12-19T16:45:07.689Z,96553.80
2018-12-19T16:47:36.455Z,96549.52
2018-12-19T16:50:06.464Z,96547.27
2018-12-19T16:52:34.769Z,96547.48
2018-12-19T16:55:03.820Z,96541.56
2018-12-19T16:57:32.340Z,96544.08
2018-12-19T17:00:01.094Z,96547.28
2018-12-19T17:02:29.742Z,96543.69
2018-12-19T17:04:58.258Z,96533.14
2018-12-19T17:07:26.533Z,96530.87
2018-12-19T17:09:55.226Z,96529.27
2018-12-19T17:12:23.502Z,96524.02
2018-12-19T17:14:52.177Z,96534.27
2018-12-19T17:17:20.513Z,96524.66
2018-12-19T17:19:49.145Z,96520.13
2018-12-19T17:22:17.650Z,96521.16
2018-12-19T17:24:46.032Z,96522.03
2018-12-19T17:27:14.332Z,96528.69
2018-12-19T17:29:43.224Z,96530.80
2018-12-19T17:32:11.690Z,96530.97
2018-12-19T17:34:40.125Z,96538.11
2018-12-19T17:37:08.390Z,96527.10
2018-12-19T17:39:37.041Z,96532.20
2018-12-19T17:42:05.487Z,96527.30
2018-12-19T17:44:33.990Z,96532.72
2018-12-19T17:47:02.438Z,96536.61
2018-12-19T17:49:30.958Z,96535.08
2018-12-19T17:51:59.538Z,96541.92
2018-12-19T17:54:27.924Z,96534.08
2018-12-19T17:56:56.373Z,96527.32
2018-12-19T17:59:24.908Z,96528.25
2018-12-19T18:01:53.349Z,96527.80
2018-12-19T18:04:21.834Z,96518.52
2018-12-19T18:06:50.292Z,96512.23
2018-12-19T18:09:18.613Z,96513.78
2018-12-19T18:11:46.887Z,96504.98
2018-12-19T18:14:15.256Z,96499.95
2018-12-19T18:16:43.726Z,96507.12
2018-12-19T18:19:12.090Z,96511.74
2018-12-19T18:21:41.790Z,96514.78
2018-12-19T18:24:10.205Z,96508.59
2018-12-19T18:26:38.468Z,96503.43
2018-12-19T18:29:06.757Z,96504.89
2018-12-19T18:31:35.135Z,96504.82
2018-12-19T18:34:03.632Z,96512.78
2018-12-19T18:36:32.177Z,96501.33
2018-12-19T18:39:00.662Z,96495.06
2018-12-19T18:41:29.054Z,96486.59
2018-12-19T18:43:57.334Z,96493.83
2018-12-19T18:46:25.693Z,96503.48
2018-12-19T18:48:54.009Z,96507.48
2018-12-19T18:51:22.481Z,96506.73
2018-12-19T18:53:50.769Z,96503.67
2018-12-19T18:56:19.434Z,96509.10
2018-12-19T18:58:47.827Z,96501.69
2018-12-19T19:01:16.418Z,96501.44
2018-12-19T19:03:44.827Z,96508.97
2018-12-19T19:06:13.800Z,96498.04
2018-12-19T19:08:42.383Z,96498.44
2018-12-19T19:11:10.853Z,96495.45
2018-12-19T19:13:39.127Z,96496.58
2018-12-19T19:16:07.830Z,96514.70
2018-12-19T19:18:36.369Z,96505.16
2018-12-19T19:21:04.672Z,96507.27
2018-12-19T19:23:33.055Z,96504.44
2018-12-19T19:26:01.435Z,96505.90
2018-12-19T19:28:29.685Z,96504.15
2018-12-19T19:30:57.957Z,96500.05
2018-12-19T19:33:31.371Z,96501.91
2018-12-19T19:35:59.761Z,96504.34
2018-12-19T19:38:28.038Z,96500.09
2018-12-19T19:40:56.738Z,96505.77
2018-12-19T19:43:26.603Z,96505.16
2018-12-19T19:45:55.659Z,96505.87
2018-12-19T19:51:01.507Z,96507.42
2018-12-19T19:53:29.777Z,96511.48
2018-12-19T19:55:58.386Z,96502.06
2018-12-19T19:58:26.657Z,96497.48
2018-12-19T20:00:54.965Z,96495.61
2018-12-19T20:03:23.297Z,96496.06
2018-12-19T20:05:51.797Z,96496.45
2018-12-19T20:08:20.249Z,96498.36
2018-12-19T20:10:48.753Z,96499.27
2018-12-19T20:13:17.033Z,96490.63
2018-12-19T20:15:45.349Z,96491.86
2018-12-19T20:18:14.698Z,96492.38
2018-12-19T20:20:43.018Z,96489.13
2018-12-19T20:23:11.293Z,96497.54
2018-12-19T20:25:39.569Z,96498.77
2018-12-19T20:28:07.974Z,96495.61
2018-12-19T20:30:36.240Z,96498.67
2018-12-19T20:33:04.537Z,96504.55
2018-12-19T20:35:33.031Z,96498.96
2018-12-19T20:38:01.321Z,96494.56
2018-12-19T20:40:29.586Z,96491.81
2018-12-19T20:42:57.865Z,96487.00
2018-12-19T20:45:26.130Z,96494.86
2018-12-19T20:47:54.417Z,96488.39
2018-12-19T20:50:22.938Z,96485.09
2018-12-19T20:52:51.222Z,96484.31
2018-12-19T20:55:19.873Z,96480.98
2018-12-19T20:57:48.430Z,96482.02
2018-12-19T21:00:16.729Z,96482.63
2018-12-19T21:02:45.345Z,96479.94
2018-12-19T21:05:13.789Z,96479.24
2018-12-19T21:07:42.316Z,96476.78
2018-12-19T21:10:10.886Z,96478.63
2018-12-19T21:12:39.814Z,96479.45
2018-12-19T21:15:08.837Z,96474.90
2018-12-19T21:17:42.567Z,96464.70
2018-12-19T21:20:10.982Z,96467.95
2018-12-19T21:22:39.334Z,96470.91
2018-12-19T21:25:08.904Z,96479.97
2018-12-19T21:27:37.342Z,96472.23
2018-12-19T21:30:07.554Z,96465.28
2018-12-19T21:32:36.342Z,96464.70
2018-12-19T21:35:04.862Z,96458.22
2018-12-19T21:37:33.169Z,96461.08
2018-12-19T21:40:01.466Z,96467.45
2018-12-19T21:42:30.275Z,96466.12
2018-12-19T21:44:58.741Z,96468.88
2018-12-19T21:47:27.066Z,96468.29
2018-12-19T21:49:55.693Z,96477.38
2018-12-19T21:52:24.176Z,96482.19
2018-12-19T21:54:52.488Z,96477.58
2018-12-19T21:57:20.782Z,96483.42
2018-12-19T21:59:49.122Z,96483.13
2018-12-19T22:02:17.430Z,96475.14
2018-12-19T22:04:46.097Z,96477.52
2018-12-19T22:07:14.914Z,96481.22
2018-12-19T22:09:44.085Z,96476.67
2018-12-19T22:12:12.610Z,96469.66
2018-12-19T22:14:40.965Z,96474.38
2018-12-19T22:19:15.816Z,96473.14
2018-12-19T22:21:44.442Z,96479.05
2018-12-19T22:24:12.961Z,96477.13
2018-12-19T22:26:41.416Z,96481.42
2018-12-19T22:29:09.921Z,96485.12
2018-12-19T22:31:38.427Z,96482.00
2018-12-19T22:34:06.910Z,96488.56
2018-12-19T22:36:35.335Z,96483.98
2018-12-19T22:39:06.434Z,96484.80
2018-12-19T22:41:34.865Z,96477.00
2018-12-19T22:44:07.841Z,96484.18
2018-12-19T22:46:33.704Z,96478.76
2018-12-19T22:49:02.175Z,96473.44
2018-12-19T22:51:30.881Z,96487.27
2018-12-19T22:53:59.178Z,96475.80
2018-12-19T22:56:27.805Z,96475.58
2018-12-19T22:58:56.367Z,96480.32
2018-12-19T23:01:30.385Z,96477.36
2018-12-19T23:04:04.335Z,96474.67
2018-12-19T23:06:33.133Z,96479.60
2018-12-19T23:09:01.496Z,96476.39
2018-12-19T23:11:29.821Z,96476.66
2018-12-19T23:13:58.438Z,96469.44
2018-12-19T23:16:26.952Z,96475.80
2018-12-19T23:18:55.439Z,96478.37
2018-12-19T23:21:23.942Z,96481.36
2018-12-19T23:23:52.254Z,96479.28
2018-12-19T23:26:20.873Z,96484.93
2018-12-19T23:28:51.339Z,96475.54
2018-12-19T23:31:19.943Z,96476.00
2018-12-19T23:33:48.813Z,96470.88
2018-12-19T23:36:17.373Z,96464.69
2018-12-19T23:38:45.821Z,96463.81
2018-12-19T23:41:14.536Z,96454.73
2018-12-19T23:43:43.054Z,96467.62
2018-12-19T23:46:11.919Z,96465.32
2018-12-19T23:48:41.340Z,96466.55
2018-12-19T23:51:09.729Z,96461.32
2018-12-19T23:53:38.246Z,96463.03
2018-12-19T23:56:06.753Z,96464.52
2018-12-19T23:58:35.209Z,96467.87
